Time;durP1;ratioP1;P1;durP2;ratioP2;P2;SDS_P1;SDS_P2;PMS_P1;PMS_P2;Temp;Humidity;BMP_temperature;BMP_pressure;BME280_temperature;BME280_humidity;BME280_pressure;Samples;Min_cycle;Max_cycle;Signal;HPM_P1;HPM_P2
2021/03/22 00:07:06;;;;;;;8.95;7.32;;;;;;;;;;4333595;28;20094;-61
2021/03/22 00:09:32;;;;;;;8.30;7.40;;;;;;;;;;4177924;34;20102;-61
2021/03/22 00:11:58;;;;;;;9.48;7.80;;;;;;;;;;4177995;34;20116;-61
2021/03/22 00:14:24;;;;;;;8.65;7.75;;;;;;;;;;4165014;34;20455;-61
2021/03/22 00:16:49;;;;;;;7.93;7.07;;;;;;;;;;4178285;34;20106;-61
2021/03/22 00:19:15;;;;;;;10.27;7.87;;;;;;;;;;4165401;34;20164;-62
2021/03/22 00:21:41;;;;;;;9.05;7.65;;;;;;;;;;4178049;34;20207;-61
2021/03/22 00:24:08;;;;;;;8.95;7.95;;;;;;;;;;4178009;34;20209;-61
2021/03/22 00:26:34;;;;;;;9.10;8.20;;;;;;;;;;4165221;34;20138;-62
2021/03/22 00:29:00;;;;;;;9.93;8.00;;;;;;;;;;4177785;34;20130;-61
2021/03/22 00:31:26;;;;;;;9.13;8.13;;;;;;;;;;4177847;34;20124;-61
2021/03/22 00:33:52;;;;;;;10.23;8.57;;;;;;;;;;4165117;34;20130;-60
2021/03/22 00:36:17;;;;;;;9.50;8.00;;;;;;;;;;4177775;34;20117;-60
2021/03/22 00:38:43;;;;;;;10.27;8.43;;;;;;;;;;4177910;34;20515;-60
2021/03/22 00:41:10;;;;;;;10.27;9.15;;;;;;;;;;4177720;34;20537;-61
2021/03/22 00:43:36;;;;;;;8.93;8.02;;;;;;;;;;4165311;34;20400;-61
2021/03/22 00:46:02;;;;;;;9.80;8.35;;;;;;;;;;4177750;34;20532;-61
2021/03/22 00:48:30;;;;;;;11.27;9.00;;;;;;;;;;4177761;34;20097;-61
2021/03/22 00:50:56;;;;;;;10.50;8.48;;;;;;;;;;4165393;34;20113;-61
2021/03/22 00:53:22;;;;;;;11.40;8.70;;;;;;;;;;4165091;34;20111;-60
2021/03/22 00:55:48;;;;;;;10.60;8.77;;;;;;;;;;4177703;34;20114;-61
2021/03/22 00:58:14;;;;;;;11.48;8.88;;;;;;;;;;4177604;34;20479;-60
2021/03/22 01:00:43;;;;;;;11.00;9.68;;;;;;;;;;4177544;34;20110;-59
2021/03/22 01:03:12;;;;;;;11.93;9.05;;;;;;;;;;4165172;34;20098;-61
2021/03/22 01:05:38;;;;;;;10.27;8.85;;;;;;;;;;4164718;34;20123;-62
2021/03/22 01:08:04;;;;;;;12.07;9.02;;;;;;;;;;4177557;34;20122;-60
2021/03/22 01:10:38;;;;;;;10.68;9.02;;;;;;;;;;4177674;34;20150;-60
2021/03/22 01:13:06;;;;;;;11.12;9.70;;;;;;;;;;4164898;34;20099;-59
2021/03/22 01:15:32;;;;;;;9.90;8.82;;;;;;;;;;4177476;34;20198;-60
2021/03/22 01:18:04;;;;;;;10.30;8.73;;;;;;;;;;4164857;34;20122;-61
2021/03/22 01:20:43;;;;;;;10.20;9.05;;;;;;;;;;4177489;34;20120;-60
2021/03/22 01:23:09;;;;;;;11.07;9.93;;;;;;;;;;4164788;34;20121;-60
2021/03/22 01:25:34;;;;;;;11.63;9.80;;;;;;;;;;4176494;34;20109;-59
2021/03/22 01:28:00;;;;;;;13.85;10.38;;;;;;;;;;4177356;34;20118;-60
2021/03/22 01:30:51;;;;;;;10.30;9.25;;;;;;;;;;4177634;34;20485;-60
2021/03/22 01:33:19;;;;;;;10.80;9.70;;;;;;;;;;4177426;34;20146;-60
2021/03/22 01:35:45;;;;;;;11.77;9.95;;;;;;;;;;4164706;34;20520;-59
2021/03/22 01:38:11;;;;;;;12.40;10.27;;;;;;;;;;4164606;34;20112;-60
2021/03/22 01:40:41;;;;;;;13.57;10.18;;;;;;;;;;4177447;34;20117;-60
2021/03/22 01:43:40;;;;;;;10.52;9.43;;;;;;;;;;4164860;34;20110;-61
2021/03/22 01:46:05;;;;;;;10.88;9.68;;;;;;;;;;4165226;34;20099;-59
2021/03/22 01:48:31;;;;;;;12.05;10.18;;;;;;;;;;4164712;34;20118;-60
2021/03/22 01:50:57;;;;;;;11.93;10.48;;;;;;;;;;4153222;34;20180;-60
2021/03/22 01:53:23;;;;;;;11.25;10.05;;;;;;;;;;4164595;34;20138;-60
2021/03/22 01:55:49;;;;;;;11.88;10.32;;;;;;;;;;4164667;34;20156;-60
2021/03/22 01:58:15;;;;;;;12.43;10.52;;;;;;;;;;4177206;34;20118;-61
2021/03/22 02:00:41;;;;;;;13.38;11.30;;;;;;;;;;4164329;34;20240;-61
2021/03/22 02:03:12;;;;;;;13.38;10.30;;;;;;;;;;4164490;34;20538;-62
2021/03/22 02:05:43;;;;;;;13.18;10.80;;;;;;;;;;4153003;34;20110;-60
2021/03/22 02:08:13;;;;;;;12.90;10.40;;;;;;;;;;4164612;34;20122;-61
2021/03/22 02:10:41;;;;;;;11.88;10.63;;;;;;;;;;4176894;34;20098;-60
2021/03/22 02:13:07;;;;;;;13.98;11.85;;;;;;;;;;4153156;34;20122;-61
2021/03/22 02:15:33;;;;;;;13.15;11.10;;;;;;;;;;4177284;34;20119;-61
2021/03/22 02:18:18;;;;;;;12.07;10.77;;;;;;;;;;4164310;34;20106;-60
2021/03/22 02:21:42;;;;;;;14.25;11.55;;;;;;;;;;4164574;34;20710;-60
2021/03/22 02:24:29;;;;;;;13.68;11.60;;;;;;;;;;4134267;34;20139;-60
2021/03/22 02:27:13;;;;;;;15.70;11.30;;;;;;;;;;4123521;34;20119;-60
2021/03/22 02:29:45;;;;;;;15.80;12.02;;;;;;;;;;4165321;34;20536;-60
2021/03/22 02:32:37;;;;;;;14.05;12.55;;;;;;;;;;4164303;34;20210;-61
2021/03/22 02:35:06;;;;;;;14.93;11.18;;;;;;;;;;4176696;34;20508;-61
2021/03/22 02:37:42;;;;;;;14.85;11.88;;;;;;;;;;4165171;34;20186;-62
2021/03/22 02:40:16;;;;;;;16.62;11.25;;;;;;;;;;4166307;34;20122;-64
2021/03/22 02:42:43;;;;;;;13.85;11.48;;;;;;;;;;4166071;34;20117;-65
2021/03/22 02:45:10;;;;;;;14.50;11.98;;;;;;;;;;4166323;34;20193;-64
2021/03/22 02:47:37;;;;;;;16.83;13.38;;;;;;;;;;4178763;34;20114;-65
2021/03/22 02:50:09;;;;;;;13.70;11.70;;;;;;;;;;4178733;34;20129;-65
2021/03/22 02:52:47;;;;;;;14.63;11.95;;;;;;;;;;4178815;34;20140;-65
2021/03/22 02:55:41;;;;;;;14.40;12.15;;;;;;;;;;4178683;34;20532;-64
2021/03/22 02:58:08;;;;;;;14.65;11.95;;;;;;;;;;4178730;34;20144;-66
2021/03/22 03:00:37;;;;;;;14.13;11.57;;;;;;;;;;4166079;34;20110;-64
2021/03/22 03:03:09;;;;;;;14.50;11.30;;;;;;;;;;4166040;34;20531;-64
2021/03/22 03:05:35;;;;;;;17.02;11.75;;;;;;;;;;4165578;34;20158;-65
2021/03/22 03:08:05;;;;;;;14.15;11.50;;;;;;;;;;4178594;34;20102;-65
2021/03/22 03:10:31;;;;;;;12.93;11.07;;;;;;;;;;4154589;34;20153;-65
2021/03/22 03:12:57;;;;;;;13.48;11.32;;;;;;;;;;4178755;34;20435;-64
2021/03/22 03:15:23;;;;;;;14.48;11.90;;;;;;;;;;4178495;34;20504;-67
2021/03/22 03:17:49;;;;;;;16.95;12.40;;;;;;;;;;4178826;34;20103;-65
2021/03/22 03:20:19;;;;;;;15.63;12.27;;;;;;;;;;4178414;34;20188;-64
2021/03/22 03:22:45;;;;;;;15.73;13.65;;;;;;;;;;4178512;34;20455;-66
2021/03/22 03:25:12;;;;;;;16.05;13.88;;;;;;;;;;4178417;34;20219;-65
2021/03/22 03:27:38;;;;;;;13.88;12.48;;;;;;;;;;4177581;34;20114;-65
2021/03/22 03:30:13;;;;;;;14.60;12.98;;;;;;;;;;4176231;34;20237;-65
2021/03/22 03:32:39;;;;;;;16.80;14.10;;;;;;;;;;4176503;34;20129;-65
2021/03/22 03:35:07;;;;;;;16.48;14.10;;;;;;;;;;4176966;34;20443;-64
2021/03/22 03:37:33;;;;;;;16.48;13.40;;;;;;;;;;4164287;34;20325;-65
2021/03/22 03:39:59;;;;;;;16.08;13.93;;;;;;;;;;4176806;34;20107;-65
2021/03/22 03:42:25;;;;;;;15.82;13.50;;;;;;;;;;4176750;34;20125;-64
2021/03/22 03:44:50;;;;;;;14.82;13.23;;;;;;;;;;4165490;34;20594;-64
2021/03/22 03:47:16;;;;;;;14.30;12.70;;;;;;;;;;4177102;34;20642;-65
2021/03/22 03:49:42;;;;;;;16.27;13.55;;;;;;;;;;4176177;34;20526;-65
2021/03/22 03:52:08;;;;;;;16.15;13.52;;;;;;;;;;4177650;34;20130;-65
2021/03/22 03:54:34;;;;;;;14.95;12.25;;;;;;;;;;4177770;34;20523;-65
2021/03/22 03:57:00;;;;;;;17.25;12.85;;;;;;;;;;4164723;34;20620;-65
2021/03/22 03:59:26;;;;;;;16.02;12.13;;;;;;;;;;4177602;34;20095;-64
2021/03/22 04:01:52;;;;;;;14.07;11.95;;;;;;;;;;4165354;34;20542;-65
2021/03/22 04:04:18;;;;;;;15.80;12.70;;;;;;;;;;4178191;34;20117;-65
2021/03/22 04:06:44;;;;;;;14.27;12.80;;;;;;;;;;4165279;34;20122;-64
2021/03/22 04:09:11;;;;;;;13.90;12.30;;;;;;;;;;4178051;34;20462;-64
2021/03/22 04:11:40;;;;;;;14.43;12.57;;;;;;;;;;4178020;34;20115;-64
2021/03/22 04:14:07;;;;;;;15.90;13.13;;;;;;;;;;4165587;34;20110;-64
2021/03/22 04:16:33;;;;;;;16.75;13.40;;;;;;;;;;4165418;34;20704;-65
2021/03/22 04:19:00;;;;;;;15.15;12.85;;;;;;;;;;4178358;34;20129;-64
2021/03/22 04:21:28;;;;;;;15.85;13.43;;;;;;;;;;4178081;34;20131;-65
2021/03/22 04:23:54;;;;;;;14.20;12.65;;;;;;;;;;4178140;34;20113;-64
2021/03/22 04:26:20;;;;;;;14.63;12.77;;;;;;;;;;4177920;34;20206;-65
2021/03/22 04:28:46;;;;;;;17.15;13.65;;;;;;;;;;4177950;34;20577;-64
2021/03/22 04:31:14;;;;;;;15.70;12.52;;;;;;;;;;4177807;34;20141;-64
2021/03/22 04:33:40;;;;;;;15.65;13.32;;;;;;;;;;4165115;34;20178;-64
2021/03/22 04:36:06;;;;;;;14.25;12.30;;;;;;;;;;4177561;34;20172;-64
2021/03/22 04:38:45;;;;;;;14.63;12.77;;;;;;;;;;4178017;34;20106;-65
2021/03/22 04:41:11;;;;;;;13.62;12.00;;;;;;;;;;4177771;34;20466;-65
2021/03/22 04:43:37;;;;;;;14.98;12.95;;;;;;;;;;4177717;34;20189;-64
2021/03/22 04:46:03;;;;;;;13.40;11.30;;;;;;;;;;4177555;34;20125;-64
2021/03/22 04:48:29;;;;;;;15.73;13.13;;;;;;;;;;4177789;34;20130;-66
2021/03/22 04:50:55;;;;;;;14.10;12.20;;;;;;;;;;4165010;34;20150;-63
2021/03/22 04:53:21;;;;;;;15.25;11.90;;;;;;;;;;4177499;34;20102;-63
2021/03/22 04:55:47;;;;;;;13.48;11.43;;;;;;;;;;4177388;34;20099;-64
2021/03/22 04:58:13;;;;;;;13.45;11.12;;;;;;;;;;4177869;34;20117;-64
2021/03/22 05:00:42;;;;;;;14.60;12.30;;;;;;;;;;4177339;34;20107;-64
2021/03/22 05:03:10;;;;;;;14.07;11.00;;;;;;;;;;4177670;34;20141;-64
2021/03/22 05:05:36;;;;;;;13.77;11.25;;;;;;;;;;4177349;34;20139;-64
2021/03/22 05:08:04;;;;;;;14.02;12.27;;;;;;;;;;4177409;34;20098;-65
2021/03/22 05:10:33;;;;;;;13.70;11.82;;;;;;;;;;4177425;34;20551;-65
2021/03/22 05:12:59;;;;;;;14.05;12.55;;;;;;;;;;4165033;34;20152;-65
2021/03/22 05:15:26;;;;;;;15.05;13.45;;;;;;;;;;4177283;34;20153;-65
2021/03/22 05:17:51;;;;;;;16.45;12.85;;;;;;;;;;4177371;34;20124;-63
2021/03/22 05:20:31;;;;;;;16.20;12.98;;;;;;;;;;4177185;34;20130;-63
2021/03/22 05:22:58;;;;;;;15.73;12.90;;;;;;;;;;4177415;34;20113;-64
2021/03/22 05:25:24;;;;;;;15.95;12.82;;;;;;;;;;4164685;34;20182;-63
2021/03/22 05:27:50;;;;;;;14.32;12.20;;;;;;;;;;4177279;34;20644;-63
2021/03/22 05:30:16;;;;;;;14.27;12.70;;;;;;;;;;4177129;34;20149;-64
2021/03/22 05:32:42;;;;;;;14.98;12.77;;;;;;;;;;4177212;34;20190;-64
2021/03/22 05:35:19;;;;;;;14.00;12.55;;;;;;;;;;4177126;34;20118;-64
2021/03/22 05:37:45;;;;;;;15.55;13.77;;;;;;;;;;4177519;34;20128;-64
2021/03/22 05:40:14;;;;;;;13.48;12.07;;;;;;;;;;4164512;34;20149;-64
2021/03/22 05:43:01;;;;;;;13.68;12.27;;;;;;;;;;4164580;34;20137;-64
2021/03/22 05:45:36;;;;;;;14.10;12.60;;;;;;;;;;4165526;34;20172;-63
2021/03/22 05:48:35;;;;;;;16.20;13.88;;;;;;;;;;4177060;34;20099;-63
2021/03/22 05:51:12;;;;;;;15.48;12.82;;;;;;;;;;4174023;34;20126;-63
2021/03/22 05:53:47;;;;;;;16.02;13.98;;;;;;;;;;4177156;34;20190;-64
2021/03/22 05:56:42;;;;;;;14.60;12.65;;;;;;;;;;4164131;34;20189;-62
2021/03/22 05:59:26;;;;;;;14.75;12.68;;;;;;;;;;4158789;34;20129;-63
2021/03/22 06:01:56;;;;;;;17.15;13.18;;;;;;;;;;4176931;34;20141;-65
2021/03/22 06:04:23;;;;;;;14.45;12.73;;;;;;;;;;4164506;34;20435;-63
2021/03/22 06:06:49;;;;;;;14.05;11.95;;;;;;;;;;4164026;34;20102;-64
2021/03/22 06:09:46;;;;;;;15.18;13.57;;;;;;;;;;4153210;34;20105;-64
2021/03/22 06:12:27;;;;;;;15.80;13.32;;;;;;;;;;4176022;34;20118;-64
2021/03/22 06:15:01;;;;;;;14.55;13.05;;;;;;;;;;4177003;34;20209;-62
2021/03/22 06:18:12;;;;;;;15.15;12.27;;;;;;;;;;4164310;34;20226;-64
2021/03/22 06:20:39;;;;;;;15.07;12.68;;;;;;;;;;4175470;34;20466;-64
2021/03/22 06:23:18;;;;;;;14.05;12.55;;;;;;;;;;4175855;34;20097;-64
2021/03/22 06:25:46;;;;;;;14.32;12.23;;;;;;;;;;4177043;34;20098;-64
2021/03/22 06:28:16;;;;;;;13.75;11.77;;;;;;;;;;4164884;34;20114;-63
2021/03/22 06:31:10;;;;;;;13.23;11.63;;;;;;;;;;4178580;34;20145;-64
2021/03/22 06:33:44;;;;;;;12.85;11.43;;;;;;;;;;4168251;34;20133;-64
2021/03/22 06:36:12;;;;;;;10.98;9.73;;;;;;;;;;4153975;34;20134;-64
2021/03/22 06:38:38;;;;;;;11.98;10.20;;;;;;;;;;4164111;34;20542;-64
2021/03/22 06:41:32;;;;;;;14.48;10.98;;;;;;;;;;4176673;34;20125;-65
2021/03/22 06:44:00;;;;;;;12.13;10.18;;;;;;;;;;4176596;34;20197;-66
2021/03/22 06:46:29;;;;;;;11.82;10.63;;;;;;;;;;4176418;34;20566;-65
2021/03/22 06:48:57;;;;;;;11.80;10.30;;;;;;;;;;4164342;34;20130;-65
2021/03/22 06:51:23;;;;;;;12.15;9.95;;;;;;;;;;4176720;34;20206;-65
2021/03/22 06:53:51;;;;;;;13.18;10.57;;;;;;;;;;4176466;34;20138;-65
2021/03/22 06:56:26;;;;;;;13.82;10.93;;;;;;;;;;4176320;34;20126;-65
2021/03/22 06:59:15;;;;;;;13.95;12.07;;;;;;;;;;4152584;34;20711;-65
2021/03/22 07:01:42;;;;;;;12.50;10.98;;;;;;;;;;4176222;34;20527;-65
2021/03/22 07:04:27;;;;;;;14.95;11.43;;;;;;;;;;4152815;34;20114;-65
2021/03/22 07:07:23;;;;;;;13.02;11.55;;;;;;;;;;4176256;34;20127;-65
2021/03/22 07:09:58;;;;;;;13.30;11.10;;;;;;;;;;4167685;34;20122;-65
2021/03/22 07:12:34;;;;;;;12.30;10.98;;;;;;;;;;4163475;34;20141;-65
2021/03/22 07:15:19;;;;;;;14.85;10.68;;;;;;;;;;4176266;34;20516;-65
2021/03/22 07:18:08;;;;;;;12.98;10.73;;;;;;;;;;4176454;34;20128;-65
2021/03/22 07:20:34;;;;;;;12.32;10.52;;;;;;;;;;4163775;34;20105;-65
2021/03/22 07:23:27;;;;;;;14.98;10.98;;;;;;;;;;4176968;34;20118;-65
2021/03/22 07:25:56;;;;;;;13.70;10.52;;;;;;;;;;4162132;34;20153;-65
2021/03/22 07:28:32;;;;;;;14.68;10.30;;;;;;;;;;4178215;34;20110;-65
2021/03/22 07:31:12;;;;;;;12.30;10.95;;;;;;;;;;4165688;34;20186;-65
2021/03/22 07:34:03;;;;;;;11.40;10.00;;;;;;;;;;4165502;34;20118;-65
2021/03/22 07:36:29;;;;;;;13.70;9.70;;;;;;;;;;4167321;34;20118;-65
2021/03/22 07:39:12;;;;;;;11.90;10.50;;;;;;;;;;4178242;34;20624;-65
2021/03/22 07:41:53;;;;;;;9.63;8.63;;;;;;;;;;4155718;34;20121;-65
2021/03/22 07:44:28;;;;;;;10.50;9.35;;;;;;;;;;4165759;34;20209;-65
2021/03/22 07:46:57;;;;;;;9.35;8.30;;;;;;;;;;4178028;34;20142;-65
2021/03/22 07:49:41;;;;;;;18.10;8.98;;;;;;;;;;4165567;34;20529;-65
2021/03/22 07:52:24;;;;;;;9.55;8.43;;;;;;;;;;4166658;34;20196;-65
2021/03/22 07:55:16;;;;;;;10.32;9.23;;;;;;;;;;4166410;34;20095;-65
2021/03/22 07:57:50;;;;;;;9.68;8.77;;;;;;;;;;4164482;34;20106;-65
2021/03/22 08:00:27;;;;;;;9.82;8.82;;;;;;;;;;4176784;34;20095;-65
2021/03/22 08:03:11;;;;;;;10.52;9.50;;;;;;;;;;4166336;34;20549;-64
2021/03/22 08:06:16;;;;;;;11.82;9.55;;;;;;;;;;4165556;34;20106;-65
2021/03/22 08:08:50;;;;;;;8.85;8.00;;;;;;;;;;4178288;34;20430;-65
2021/03/22 08:11:22;;;;;;;11.90;10.60;;;;;;;;;;4166144;34;20107;-64
2021/03/22 08:13:51;;;;;;;10.52;9.38;;;;;;;;;;4178101;34;20526;-65
2021/03/22 08:16:33;;;;;;;12.18;8.75;;;;;;;;;;4178112;34;20207;-65
2021/03/22 08:19:09;;;;;;;10.20;8.07;;;;;;;;;;4178329;34;20173;-65
2021/03/22 08:21:44;;;;;;;9.77;8.50;;;;;;;;;;4178124;34;20536;-65
2021/03/22 08:24:46;;;;;;;8.80;7.87;;;;;;;;;;4166011;34;20094;-65
2021/03/22 08:27:15;;;;;;;8.05;7.25;;;;;;;;;;4168494;34;20527;-66
2021/03/22 08:29:50;;;;;;;7.78;6.70;;;;;;;;;;4154589;34;20206;-66
2021/03/22 08:32:37;;;;;;;8.55;7.65;;;;;;;;;;4165526;34;20443;-66
2021/03/22 08:35:23;;;;;;;8.48;7.37;;;;;;;;;;4177523;34;20122;-66
2021/03/22 08:38:00;;;;;;;9.20;8.30;;;;;;;;;;4166143;34;20122;-66
2021/03/22 08:40:41;;;;;;;10.88;7.87;;;;;;;;;;4178100;34;20467;-65
2021/03/22 08:43:14;;;;;;;9.27;8.25;;;;;;;;;;4177903;34;20547;-65
2021/03/22 08:46:01;;;;;;;8.88;7.97;;;;;;;;;;4165644;34;20448;-66
2021/03/22 08:48:28;;;;;;;11.07;7.75;;;;;;;;;;4166197;34;20554;-65
2021/03/22 08:50:55;;;;;;;9.95;8.40;;;;;;;;;;4164936;34;20111;-65
2021/03/22 08:53:23;;;;;;;10.68;8.45;;;;;;;;;;4165182;34;20130;-66
2021/03/22 08:55:54;;;;;;;12.02;9.45;;;;;;;;;;4164878;34;20141;-66
2021/03/22 08:58:32;;;;;;;10.35;8.73;;;;;;;;;;4165615;34;20451;-65
2021/03/22 09:01:07;;;;;;;11.32;8.30;;;;;;;;;;4154712;34;20181;-66
2021/03/22 09:03:34;;;;;;;9.20;8.20;;;;;;;;;;4177554;34;20579;-66
2021/03/22 09:06:23;;;;;;;10.48;7.72;;;;;;;;;;4153615;34;20174;-66
2021/03/22 09:08:49;;;;;;;9.27;8.38;;;;;;;;;;4165309;34;20234;-65
2021/03/22 09:11:23;;;;;;;8.98;7.22;;;;;;;;;;4177580;34;20468;-66
2021/03/22 09:13:50;;;;;;;7.85;7.05;;;;;;;;;;4165652;34;20117;-66
2021/03/22 09:16:23;;;;;;;9.13;7.07;;;;;;;;;;4164879;34;20113;-69
2021/03/22 09:19:13;;;;;;;8.55;6.97;;;;;;;;;;4177617;34;20177;-67
2021/03/22 09:21:46;;;;;;;7.12;6.43;;;;;;;;;;4177780;34;20154;-69
2021/03/22 09:24:43;;;;;;;8.55;7.45;;;;;;;;;;4177555;34;20531;-69
2021/03/22 09:27:16;;;;;;;12.18;7.47;;;;;;;;;;4177786;34;20114;-68
2021/03/22 09:29:57;;;;;;;9.10;7.53;;;;;;;;;;4177560;34;20106;-69
2021/03/22 09:32:32;;;;;;;9.15;7.97;;;;;;;;;;4181661;34;20114;-68
2021/03/22 09:35:13;;;;;;;8.90;7.45;;;;;;;;;;4178938;34;20252;-69
2021/03/22 09:38:03;;;;;;;9.23;7.22;;;;;;;;;;4164664;34;20552;-68
2021/03/22 09:40:29;;;;;;;8.60;7.68;;;;;;;;;;4177200;34;20740;-68
2021/03/22 09:43:04;;;;;;;9.13;8.15;;;;;;;;;;4164831;34;20136;-67
2021/03/22 09:45:50;;;;;;;8.00;7.20;;;;;;;;;;4177357;34;20110;-67
2021/03/22 09:48:16;;;;;;;;;;;;;;;;;;4176502;34;20118;-67
2021/03/22 09:51:03;;;;;;;7.47;6.25;;;;;;;;;;4177077;34;20025;-68
2021/03/22 09:53:47;;;;;;;6.90;5.60;;;;;;;;;;4162667;34;20121;-67
2021/03/22 09:56:32;;;;;;;8.75;6.25;;;;;;;;;;4177198;34;20110;-68
2021/03/22 09:59:29;;;;;;;7.53;6.35;;;;;;;;;;4165028;34;20153;-67
2021/03/22 10:01:57;;;;;;;7.03;5.97;;;;;;;;;;4164767;34;20451;-67
2021/03/22 10:04:34;;;;;;;8.43;5.90;;;;;;;;;;4164408;34;20145;-67
2021/03/22 10:07:14;;;;;;;7.18;6.47;;;;;;;;;;4164771;34;20190;-68
2021/03/22 10:09:54;;;;;;;6.62;5.95;;;;;;;;;;4177189;34;20610;-67
2021/03/22 10:12:20;;;;;;;6.70;6.00;;;;;;;;;;4164283;34;20186;-67
2021/03/22 10:14:49;;;;;;;6.15;5.50;;;;;;;;;;4177207;34;20126;-67
2021/03/22 10:17:34;;;;;;;7.43;5.80;;;;;;;;;;4164823;34;20237;-68
2021/03/22 10:20:23;;;;;;;6.20;5.55;;;;;;;;;;4164451;34;20118;-68
2021/03/22 10:23:01;;;;;;;6.95;5.80;;;;;;;;;;4165633;34;20116;-67
2021/03/22 10:25:32;;;;;;;7.00;5.85;;;;;;;;;;4154020;34;20148;-67
2021/03/22 10:28:05;;;;;;;6.35;5.75;;;;;;;;;;4164308;34;20237;-68
2021/03/22 10:30:31;;;;;;;7.20;6.37;;;;;;;;;;4164021;34;20105;-67
2021/03/22 10:33:02;;;;;;;6.97;4.97;;;;;;;;;;4176713;34;20442;-68
2021/03/22 10:35:48;;;;;;;7.62;5.97;;;;;;;;;;4164269;34;20108;-67
2021/03/22 10:38:22;;;;;;;6.68;5.20;;;;;;;;;;4177061;34;20098;-67
2021/03/22 10:40:48;;;;;;;6.85;5.87;;;;;;;;;;4164573;34;20114;-66
2021/03/22 10:43:39;;;;;;;6.57;5.35;;;;;;;;;;4177247;34;20125;-67
2021/03/22 10:46:19;;;;;;;5.90;5.28;;;;;;;;;;4176869;34;20122;-65
2021/03/22 10:48:45;;;;;;;7.03;5.65;;;;;;;;;;4164872;34;20129;-66
2021/03/22 10:51:16;;;;;;;7.72;5.95;;;;;;;;;;4164923;34;20130;-66
2021/03/22 10:54:00;;;;;;;6.37;5.22;;;;;;;;;;4164755;34;20109;-66
2021/03/22 10:56:37;;;;;;;5.62;4.32;;;;;;;;;;4165993;34;20098;-67
2021/03/22 10:59:10;;;;;;;8.43;5.35;;;;;;;;;;4155036;34;20141;-67
2021/03/22 11:01:37;;;;;;;6.80;5.32;;;;;;;;;;4166746;34;20129;-67
2021/03/22 11:04:34;;;;;;;5.32;4.75;;;;;;;;;;4168083;34;20154;-66
2021/03/22 11:07:14;;;;;;;6.10;4.97;;;;;;;;;;4179224;34;20118;-67
2021/03/22 11:09:40;;;;;;;6.10;5.50;;;;;;;;;;4166679;34;20113;-67
2021/03/22 11:12:06;;;;;;;6.75;4.97;;;;;;;;;;4156071;34;20491;-65
2021/03/22 11:14:33;;;;;;;6.45;5.22;;;;;;;;;;4179720;34;20467;-67
2021/03/22 11:17:14;;;;;;;6.97;5.15;;;;;;;;;;4166222;34;20130;-67
2021/03/22 11:19:44;;;;;;;10.13;5.47;;;;;;;;;;4169115;34;20115;-67
2021/03/22 11:22:23;;;;;;;7.70;6.00;;;;;;;;;;4166748;34;20113;-67
2021/03/22 11:24:50;;;;;;;7.28;5.18;;;;;;;;;;4178871;34;20158;-66
2021/03/22 11:27:16;;;;;;;7.95;6.70;;;;;;;;;;4165830;34;20176;-66
2021/03/22 11:29:56;;;;;;;7.72;6.20;;;;;;;;;;4178577;34;20150;-66
2021/03/22 11:32:24;;;;;;;6.82;5.00;;;;;;;;;;4166771;34;20302;-66
2021/03/22 11:34:50;;;;;;;6.68;5.80;;;;;;;;;;4178659;34;20218;-66
2021/03/22 11:37:30;;;;;;;7.97;5.70;;;;;;;;;;4178949;34;20133;-66
2021/03/22 11:40:16;;;;;;;6.40;5.80;;;;;;;;;;4154570;34;20130;-67
2021/03/22 11:43:01;;;;;;;5.93;5.28;;;;;;;;;;4166050;34;20128;-67
2021/03/22 11:45:38;;;;;;;6.93;6.15;;;;;;;;;;4178527;34;20220;-68
2021/03/22 11:48:30;;;;;;;5.87;5.12;;;;;;;;;;4165970;34;20137;-67
2021/03/22 11:50:59;;;;;;;7.55;5.90;;;;;;;;;;4167637;34;20115;-68
2021/03/22 11:53:25;;;;;;;7.53;5.47;;;;;;;;;;4178429;34;20114;-68
2021/03/22 11:56:16;;;;;;;7.50;6.78;;;;;;;;;;4178399;34;20133;-68
2021/03/22 11:58:42;;;;;;;7.05;6.12;;;;;;;;;;4178737;34;20575;-68
2021/03/22 12:01:25;;;;;;;8.70;6.05;;;;;;;;;;4178271;34;20110;-66
2021/03/22 12:04:03;;;;;;;7.82;6.78;;;;;;;;;;4166157;34;20102;-66
2021/03/22 12:06:30;;;;;;;8.15;6.12;;;;;;;;;;4178493;34;20229;-64
2021/03/22 12:08:56;;;;;;;6.82;5.60;;;;;;;;;;4171916;34;20123;-66
2021/03/22 12:11:27;;;;;;;6.65;5.95;;;;;;;;;;4152454;34;20113;-66
2021/03/22 12:13:56;;;;;;;7.57;6.10;;;;;;;;;;4190904;34;20103;-66
2021/03/22 12:16:24;;;;;;;9.68;6.12;;;;;;;;;;4191093;34;20118;-66
2021/03/22 12:18:52;;;;;;;7.50;6.18;;;;;;;;;;4160730;34;20140;-66
2021/03/22 12:21:17;;;;;;;6.43;5.72;;;;;;;;;;4166409;34;20114;-66
2021/03/22 12:23:44;;;;;;;6.65;5.78;;;;;;;;;;4166650;34;20117;-66
2021/03/22 12:26:13;;;;;;;6.90;6.22;;;;;;;;;;4166037;34;20297;-67
2021/03/22 12:28:53;;;;;;;7.55;6.57;;;;;;;;;;4165895;34;20125;-66
2021/03/22 12:31:24;;;;;;;6.22;5.57;;;;;;;;;;4178736;34;20117;-66
2021/03/22 12:33:50;;;;;;;7.60;6.55;;;;;;;;;;4166600;34;20125;-66
2021/03/22 12:36:16;;;;;;;7.35;6.57;;;;;;;;;;4178139;34;20114;-66
2021/03/22 12:38:44;;;;;;;8.85;6.40;;;;;;;;;;4178149;34;20542;-67
2021/03/22 12:41:20;;;;;;;6.72;5.87;;;;;;;;;;4165429;34;20121;-67
2021/03/22 12:43:46;;;;;;;8.10;6.85;;;;;;;;;;4166627;34;20107;-68
2021/03/22 12:46:13;;;;;;;7.72;6.93;;;;;;;;;;4165952;34;20229;-67
2021/03/22 12:48:39;;;;;;;8.30;7.50;;;;;;;;;;4178031;34;20102;-68
2021/03/22 12:51:05;;;;;;;9.65;8.27;;;;;;;;;;4177614;34;20098;-68
2021/03/22 12:53:31;;;;;;;9.55;8.65;;;;;;;;;;4177891;34;20106;-67
2021/03/22 12:55:59;;;;;;;9.95;8.95;;;;;;;;;;4177837;34;20203;-68
2021/03/22 12:58:25;;;;;;;11.15;9.55;;;;;;;;;;4177716;34;20213;-68
2021/03/22 13:00:51;;;;;;;10.00;9.00;;;;;;;;;;4164869;34;20176;-67
2021/03/22 13:03:22;;;;;;;11.25;10.05;;;;;;;;;;4178101;34;20467;-68
2021/03/22 13:05:52;;;;;;;10.82;9.75;;;;;;;;;;4177389;34;20201;-67
2021/03/22 13:08:18;;;;;;;11.30;10.13;;;;;;;;;;4165150;34;20456;-64
2021/03/22 13:10:44;;;;;;;13.65;10.15;;;;;;;;;;4177628;34;20126;-66
2021/03/22 13:13:10;;;;;;;12.32;10.30;;;;;;;;;;4177530;34;20114;-65
2021/03/22 13:15:44;;;;;;;13.05;11.00;;;;;;;;;;4164910;34;20552;-67
2021/03/22 13:18:21;;;;;;;10.57;9.23;;;;;;;;;;4165574;34;20133;-66
2021/03/22 13:20:55;;;;;;;15.30;11.57;;;;;;;;;;4177114;34;20165;-67
2021/03/22 13:23:21;;;;;;;14.15;12.37;;;;;;;;;;4176344;34;20528;-67
2021/03/22 13:25:49;;;;;;;14.50;12.18;;;;;;;;;;4177552;34;20121;-67
2021/03/22 13:28:20;;;;;;;13.82;11.77;;;;;;;;;;4177609;34;20134;-67
2021/03/22 13:30:46;;;;;;;14.85;11.90;;;;;;;;;;4165511;34;20098;-66
2021/03/22 13:33:19;;;;;;;14.00;11.18;;;;;;;;;;4177331;34;20101;-66
2021/03/22 13:35:45;;;;;;;13.10;10.85;;;;;;;;;;4177448;34;20137;-66
2021/03/22 13:38:15;;;;;;;14.23;12.25;;;;;;;;;;4177484;34;20129;-66
2021/03/22 13:40:42;;;;;;;13.57;11.12;;;;;;;;;;4177374;34;20133;-66
2021/03/22 13:43:13;;;;;;;12.77;11.05;;;;;;;;;;4177370;34;20118;-67
2021/03/22 13:45:39;;;;;;;12.30;10.73;;;;;;;;;;4164907;34;20569;-67
2021/03/22 13:48:06;;;;;;;16.85;11.75;;;;;;;;;;4177351;34;20109;-66
2021/03/22 13:50:31;;;;;;;13.32;11.07;;;;;;;;;;4164588;34;20114;-66
2021/03/22 13:53:02;;;;;;;13.85;10.45;;;;;;;;;;4164461;34;20527;-64
2021/03/22 13:55:27;;;;;;;13.23;10.50;;;;;;;;;;4164818;34;20164;-64
2021/03/22 13:57:54;;;;;;;13.50;10.15;;;;;;;;;;4177188;34;20507;-64
2021/03/22 14:00:20;;;;;;;11.55;9.57;;;;;;;;;;4176827;34;20098;-64
2021/03/22 14:02:48;;;;;;;14.32;11.12;;;;;;;;;;4164499;34;20177;-64
2021/03/22 14:05:25;;;;;;;11.70;10.32;;;;;;;;;;4164711;34;20215;-64
2021/03/22 14:07:51;;;;;;;13.18;11.10;;;;;;;;;;4176824;34;20136;-64
2021/03/22 14:10:18;;;;;;;12.37;10.82;;;;;;;;;;4164585;34;20138;-63
2021/03/22 14:12:43;;;;;;;12.55;9.93;;;;;;;;;;4177088;34;20197;-64
2021/03/22 14:15:16;;;;;;;12.50;10.02;;;;;;;;;;4176954;34;20125;-63
2021/03/22 14:17:45;;;;;;;12.95;10.68;;;;;;;;;;4176974;34;20117;-63
2021/03/22 14:20:11;;;;;;;12.15;10.52;;;;;;;;;;4175671;34;20124;-65
2021/03/22 14:22:37;;;;;;;11.57;9.98;;;;;;;;;;4177268;34;20126;-64
2021/03/22 14:25:04;;;;;;;11.60;9.75;;;;;;;;;;4175546;34;20629;-64
2021/03/22 14:27:30;;;;;;;11.15;9.27;;;;;;;;;;4177113;34;20241;-65
2021/03/22 14:29:56;;;;;;;12.82;9.40;;;;;;;;;;4164273;34;20622;-65
2021/03/22 14:32:22;;;;;;;11.90;9.48;;;;;;;;;;4152972;34;20122;-65
2021/03/22 14:34:48;;;;;;;10.15;9.15;;;;;;;;;;4179013;34;20106;-62
2021/03/22 14:37:14;;;;;;;10.55;9.32;;;;;;;;;;4178325;34;20447;-65
2021/03/22 14:39:39;;;;;;;11.63;8.55;;;;;;;;;;4178913;34;20106;-64
2021/03/22 14:42:06;;;;;;;10.60;8.63;;;;;;;;;;4178729;34;20135;-65
2021/03/22 14:44:32;;;;;;;9.93;8.93;;;;;;;;;;4178853;34;20196;-64
2021/03/22 14:46:58;;;;;;;12.70;9.55;;;;;;;;;;4166272;34;20133;-62
2021/03/22 14:49:23;;;;;;;10.52;9.23;;;;;;;;;;4178746;34;20117;-63
2021/03/22 14:51:49;;;;;;;10.18;9.10;;;;;;;;;;4178625;34;20118;-63
2021/03/22 14:54:15;;;;;;;11.90;9.13;;;;;;;;;;4178736;34;20115;-62
2021/03/22 14:56:41;;;;;;;11.75;9.20;;;;;;;;;;4178646;34;20106;-63
2021/03/22 14:59:09;;;;;;;11.25;8.77;;;;;;;;;;4178533;34;20181;-64
2021/03/22 15:01:35;;;;;;;10.82;8.48;;;;;;;;;;4178646;34;20114;-63
2021/03/22 15:04:01;;;;;;;9.55;8.27;;;;;;;;;;4178624;34;20109;-63